Time;durP1;ratioP1;P1;durP2;ratioP2;P2;SDS_P1;SDS_P2;PMS_P1;PMS_P2;Temp;Humidity;BMP_temperature;BMP_pressure;BME280_temperature;BME280_humidity;BME280_pressure;Samples;Min_cycle;Max_cycle;Signal;HPM_P1;HPM_P2
2022/12/03 00:01:23;;;;;;;;;;;7.10;85.40;;;;;;5115257;28;19940;-87
2022/12/03 00:03:49;;;;;;;;;;;7.00;85.70;;;;;;5115227;28;20308;-87
2022/12/03 00:06:15;;;;;;;;;;;7.00;86.30;;;;;;5115199;28;20325;-87
2022/12/03 00:08:40;;;;;;;;;;;7.00;86.40;;;;;;5096778;28;20043;-86
2022/12/03 00:11:06;;;;;;;;;;;7.00;86.60;;;;;;5114589;28;19947;-87
2022/12/03 00:13:31;;;;;;;;;;;7.10;86.50;;;;;;5114900;28;20354;-86
2022/12/03 00:15:57;;;;;;;;;;;7.10;86.30;;;;;;5114610;28;20419;-87
2022/12/03 00:18:22;;;;;;;;;;;7.20;86.30;;;;;;5114950;28;20371;-86
2022/12/03 00:20:48;;;;;;;;;;;7.20;86.40;;;;;;5114897;28;20312;-87
2022/12/03 00:23:13;;;;;;;;;;;7.30;86.40;;;;;;5114721;28;20025;-87
2022/12/03 00:25:39;;;;;;;;;;;7.20;86.40;;;;;;5114582;28;20060;-87
2022/12/03 00:28:04;;;;;;;;;;;7.20;86.30;;;;;;5114739;28;20029;-88
2022/12/03 00:30:30;;;;;;;;;;;7.30;86.30;;;;;;5114763;28;20018;-87
2022/12/03 00:32:55;;;;;;;;;;;7.40;85.90;;;;;;5114686;28;19943;-87
2022/12/03 00:35:21;;;;;;;;;;;7.40;85.50;;;;;;5114574;28;19969;-87
2022/12/03 00:37:47;;;;;;;;;;;7.40;85.40;;;;;;5114542;28;19953;-87
2022/12/03 00:40:13;;;;;;;;;;;7.40;85.50;;;;;;5114528;28;20317;-87
2022/12/03 00:42:38;;;;;;;;;;;7.40;85.70;;;;;;5114458;28;20467;-87
2022/12/03 00:45:04;;;;;;;;;;;7.40;85.70;;;;;;5114403;28;20446;-87
2022/12/03 00:47:29;;;;;;;;;;;7.40;85.70;;;;;;5114370;28;19969;-87
2022/12/03 00:49:55;;;;;;;;;;;7.40;85.90;;;;;;5114409;28;20450;-87
2022/12/03 00:52:20;;;;;;;;;;;7.30;86.10;;;;;;5114187;28;20322;-87
2022/12/03 00:54:46;;;;;;;;;;;7.30;86.30;;;;;;5114198;28;20393;-87
2022/12/03 00:57:12;;;;;;;;;;;7.30;86.40;;;;;;5113917;28;20326;-87
2022/12/03 00:59:37;;;;;;;;;;;7.30;86.50;;;;;;5114214;28;20310;-87
2022/12/03 01:02:03;;;;;;;;;;;7.30;86.60;;;;;;5114448;28;19940;-87
2022/12/03 01:04:28;;;;;;;;;;;7.30;86.70;;;;;;5114120;28;19949;-87
2022/12/03 01:06:54;;;;;;;;;;;7.30;86.60;;;;;;5113818;28;20111;-87
2022/12/03 01:09:20;;;;;;;;;;;7.20;86.70;;;;;;5113302;28;20472;-88
2022/12/03 01:11:45;;;;;;;;;;;7.30;86.70;;;;;;5113992;28;20485;-88
2022/12/03 01:14:15;;;;;;;;;;;7.20;86.70;;;;;;5113933;28;20019;-87
2022/12/03 01:16:41;;;;;;;;;;;7.20;86.70;;;;;;5113773;28;19990;-87
2022/12/03 01:19:09;;;;;;;;;;;7.20;86.70;;;;;;5095715;28;20397;-87
2022/12/03 01:21:35;;;;;;;;;;;7.30;86.50;;;;;;5113849;28;19939;-87
2022/12/03 01:24:00;;;;;;;;;;;7.40;86.00;;;;;;5113542;28;19972;-87
2022/12/03 01:26:26;;;;;;;;;;;7.30;86.00;;;;;;5113545;28;20460;-87
2022/12/03 01:28:52;;;;;;;;;;;7.30;86.10;;;;;;5113561;28;19986;-87
2022/12/03 01:34:02;;;;;;;;;;;7.30;86.50;;;;;;5113960;28;19989;-88
2022/12/03 01:36:28;;;;;;;;;;;7.30;86.40;;;;;;5113395;28;20396;-87
2022/12/03 01:38:53;;;;;;;;;;;7.40;86.40;;;;;;5113390;28;20458;-88
2022/12/03 01:41:19;;;;;;;;;;;7.40;86.20;;;;;;5095331;28;19986;-87
2022/12/03 01:43:45;;;;;;;;;;;7.40;86.10;;;;;;5113513;28;20385;-87
2022/12/03 01:46:12;;;;;;;;;;;7.40;85.90;;;;;;5113313;28;19940;-87
2022/12/03 01:48:38;;;;;;;;;;;7.50;85.70;;;;;;5113526;28;19946;-88
2022/12/03 01:51:03;;;;;;;;;;;7.40;85.60;;;;;;5113501;28;20041;-87
2022/12/03 01:53:29;;;;;;;;;;;7.40;85.70;;;;;;5113229;28;20380;-87
2022/12/03 01:55:54;;;;;;;;;;;7.40;85.70;;;;;;5113083;28;20484;-88
2022/12/03 01:58:24;;;;;;;;;;;7.40;85.70;;;;;;5113409;28;20038;-88
2022/12/03 02:00:49;;;;;;;;;;;7.50;85.80;;;;;;5113449;28;20420;-88
2022/12/03 02:03:20;;;;;;;;;;;7.50;85.90;;;;;;5113381;28;19981;-88
2022/12/03 02:05:45;;;;;;;;;;;7.50;85.90;;;;;;5113224;28;19945;-88
2022/12/03 02:08:30;;;;;;;;;;;7.50;85.90;;;;;;5113307;28;19945;-88
2022/12/03 02:11:07;;;;;;;;;;;7.40;86.10;;;;;;5113320;28;19940;-88
2022/12/03 02:13:33;;;;;;;;;;;7.40;86.10;;;;;;5112960;28;19944;-88
2022/12/03 02:15:58;;;;;;;;;;;7.50;86.10;;;;;;5113194;28;20408;-88
2022/12/03 02:18:24;;;;;;;;;;;7.50;86.00;;;;;;5113274;28;20038;-88
2022/12/03 02:21:13;;;;;;;;;;;7.50;86.00;;;;;;5113776;28;20358;-88
2022/12/03 02:23:58;;;;;;;;;;;7.50;86.00;;;;;;5103444;28;20382;-88
2022/12/03 02:26:24;;;;;;;;;;;7.50;85.90;;;;;;5116226;28;19976;-88
2022/12/03 02:28:49;;;;;;;;;;;7.50;85.80;;;;;;5117098;28;20034;-88
2022/12/03 02:31:15;;;;;;;;;;;7.50;85.60;;;;;;5116768;28;19945;-88
2022/12/03 02:33:41;;;;;;;;;;;7.50;85.40;;;;;;5116996;28;20337;-88
2022/12/03 02:36:06;;;;;;;;;;;7.60;85.30;;;;;;5116959;28;20397;-88
2022/12/03 02:38:33;;;;;;;;;;;7.70;85.10;;;;;;5116946;28;19934;-88
2022/12/03 02:41:02;;;;;;;;;;;7.70;84.90;;;;;;5116207;28;19953;-88
2022/12/03 02:43:27;;;;;;;;;;;7.80;84.80;;;;;;5116816;28;19989;-88
2022/12/03 02:45:54;;;;;;;;;;;7.80;84.70;;;;;;5116807;28;19940;-88
2022/12/03 02:48:25;;;;;;;;;;;7.80;84.30;;;;;;5116748;28;20444;-88
2022/12/03 02:50:52;;;;;;;;;;;7.90;84.10;;;;;;5116398;28;19952;-88
2022/12/03 02:53:19;;;;;;;;;;;7.90;83.90;;;;;;5116324;28;19970;-88
2022/12/03 02:55:45;;;;;;;;;;;7.90;83.60;;;;;;5116511;28;20000;-88
2022/12/03 02:58:10;;;;;;;;;;;7.90;83.50;;;;;;5116515;28;20342;-88
2022/12/03 03:00:36;;;;;;;;;;;7.90;83.60;;;;;;5116194;28;19965;-88
2022/12/03 03:03:03;;;;;;;;;;;7.90;83.60;;;;;;5116223;28;20383;-88
2022/12/03 03:05:28;;;;;;;;;;;7.80;83.60;;;;;;5116446;28;20027;-88
2022/12/03 03:07:56;;;;;;;;;;;7.90;83.70;;;;;;5116303;28;19978;-88
2022/12/03 03:10:22;;;;;;;;;;;7.90;83.70;;;;;;5116268;28;19937;-88
2022/12/03 03:12:48;;;;;;;;;;;7.80;83.70;;;;;;5116000;28;20454;-88
2022/12/03 03:15:14;;;;;;;;;;;7.90;83.70;;;;;;5116161;28;20069;-88
2022/12/03 03:17:39;;;;;;;;;;;7.90;83.60;;;;;;5116403;28;19987;-88
2022/12/03 03:20:06;;;;;;;;;;;7.90;83.40;;;;;;5116140;28;20390;-88
2022/12/03 03:22:32;;;;;;;;;;;7.90;83.40;;;;;;5115774;28;20004;-88
2022/12/03 03:24:58;;;;;;;;;;;7.90;83.30;;;;;;5115872;28;20341;-88
2022/12/03 03:27:24;;;;;;;;;;;7.90;83.30;;;;;;5115940;28;19960;-88
2022/12/03 03:29:50;;;;;;;;;;;7.90;83.20;;;;;;5115920;28;20025;-88
2022/12/03 03:32:15;;;;;;;;;;;7.90;83.10;;;;;;5096844;28;19938;-88
2022/12/03 03:34:41;;;;;;;;;;;8.00;82.90;;;;;;5115732;28;19941;-88
2022/12/03 03:37:06;;;;;;;;;;;8.00;82.90;;;;;;5115691;28;19955;-88
2022/12/03 03:39:32;;;;;;;;;;;8.00;83.10;;;;;;5115780;28;19937;-88
2022/12/03 03:41:57;;;;;;;;;;;8.00;83.00;;;;;;5115716;28;19990;-88
2022/12/03 03:44:23;;;;;;;;;;;8.00;83.00;;;;;;5115463;28;19994;-88
2022/12/03 03:46:48;;;;;;;;;;;8.00;83.10;;;;;;5115620;28;19945;-88
2022/12/03 03:49:15;;;;;;;;;;;8.10;83.00;;;;;;5115615;28;19947;-88
2022/12/03 03:51:40;;;;;;;;;;;8.10;83.00;;;;;;5097218;28;20406;-88
2022/12/03 03:54:06;;;;;;;;;;;8.00;83.00;;;;;;5115040;28;20063;-88
2022/12/03 03:56:33;;;;;;;;;;;8.00;83.30;;;;;;5115319;28;19958;-88
2022/12/03 03:58:59;;;;;;;;;;;8.00;83.40;;;;;;5115394;28;20435;-88
2022/12/03 04:01:25;;;;;;;;;;;7.90;83.50;;;;;;5115344;28;19941;-88
2022/12/03 04:03:52;;;;;;;;;;;8.00;83.50;;;;;;5115070;28;19951;-88
2022/12/03 04:06:18;;;;;;;;;;;7.90;83.70;;;;;;5115440;28;19945;-88
2022/12/03 04:08:43;;;;;;;;;;;7.90;84.00;;;;;;5115439;28;19945;-88
2022/12/03 04:13:53;;;;;;;;;;;7.80;84.60;;;;;;5114677;28;20464;-88
2022/12/03 04:16:19;;;;;;;;;;;7.80;84.70;;;;;;5114946;28;19960;-88
2022/12/03 04:18:44;;;;;;;;;;;7.80;85.20;;;;;;5114987;28;19946;-88
2022/12/03 04:23:58;;;;;;;;;;;7.80;85.30;;;;;;5114383;28;20028;-88
2022/12/03 04:29:08;;;;;;;;;;;7.80;85.70;;;;;;5115419;28;19996;-88
2022/12/03 04:37:02;;;;;;;;;;;7.70;87.40;;;;;;5114600;28;20477;-88
2022/12/03 04:39:27;;;;;;;;;;;7.70;87.20;;;;;;5114562;28;19980;-88
2022/12/03 04:41:53;;;;;;;;;;;7.70;87.30;;;;;;5114528;28;19937;-88
2022/12/03 04:44:37;;;;;;;;;;;7.70;87.20;;;;;;5113319;28;19956;-88
2022/12/03 04:47:04;;;;;;;;;;;7.70;87.80;;;;;;5114464;28;19942;-88
2022/12/03 04:49:30;;;;;;;;;;;7.70;87.90;;;;;;5114394;28;19935;-88
2022/12/03 04:51:55;;;;;;;;;;;7.70;87.80;;;;;;5114420;28;19944;-88
2022/12/03 04:54:21;;;;;;;;;;;7.70;87.60;;;;;;5113569;28;20066;-88
2022/12/03 04:56:46;;;;;;;;;;;7.70;87.40;;;;;;5113327;28;19961;-88
2022/12/03 04:59:13;;;;;;;;;;;7.70;87.40;;;;;;5093847;28;20562;-88
2022/12/03 05:01:39;;;;;;;;;;;7.80;86.90;;;;;;5093975;28;20008;-88
2022/12/03 05:04:05;;;;;;;;;;;7.90;86.00;;;;;;5107334;28;19955;-88
2022/12/03 05:06:30;;;;;;;;;;;7.80;85.90;;;;;;5114090;28;20032;-88
2022/12/03 05:08:56;;;;;;;;;;;7.80;85.90;;;;;;5114686;28;20271;-88
2022/12/03 05:11:21;;;;;;;;;;;7.70;85.90;;;;;;5114013;28;19942;-88
2022/12/03 05:13:47;;;;;;;;;;;7.70;86.00;;;;;;5095475;28;20371;-88
2022/12/03 05:16:12;;;;;;;;;;;7.70;86.00;;;;;;5113883;28;20486;-88
2022/12/03 05:18:38;;;;;;;;;;;7.70;85.90;;;;;;5113909;28;19929;-89
2022/12/03 05:21:03;;;;;;;;;;;7.80;85.80;;;;;;5113999;28;20033;-88
2022/12/03 05:23:29;;;;;;;;;;;7.80;85.60;;;;;;5113326;28;19972;-88
2022/12/03 05:25:54;;;;;;;;;;;7.70;85.60;;;;;;5113705;28;20443;-88
2022/12/03 05:28:22;;;;;;;;;;;7.70;85.70;;;;;;5113627;28;19947;-89
2022/12/03 05:30:47;;;;;;;;;;;7.70;85.90;;;;;;5113547;28;19944;-88
2022/12/03 05:33:13;;;;;;;;;;;7.70;85.90;;;;;;5113231;28;20034;-89
2022/12/03 05:35:38;;;;;;;;;;;7.80;86.00;;;;;;5113477;28;19967;-88
2022/12/03 05:38:04;;;;;;;;;;;7.70;86.00;;;;;;5113643;28;20296;-88
2022/12/03 05:40:29;;;;;;;;;;;7.70;86.10;;;;;;5113602;28;19936;-88
2022/12/03 05:43:00;;;;;;;;;;;7.60;86.10;;;;;;5113374;28;19997;-88
2022/12/03 05:45:26;;;;;;;;;;;7.70;86.40;;;;;;5113524;28;19946;-88
2022/12/03 05:47:53;;;;;;;;;;;7.70;86.50;;;;;;5113223;28;19950;-88
2022/12/03 05:50:23;;;;;;;;;;;7.60;86.40;;;;;;5113276;28;19951;-88
2022/12/03 05:52:49;;;;;;;;;;;7.70;86.30;;;;;;5113353;28;19956;-88
2022/12/03 05:55:14;;;;;;;;;;;7.70;86.50;;;;;;5113399;28;19943;-88
2022/12/03 05:57:40;;;;;;;;;;;7.60;86.60;;;;;;5117564;28;20299;-88
2022/12/03 06:00:07;;;;;;;;;;;7.60;86.60;;;;;;5117667;28;19944;-88
2022/12/03 06:02:33;;;;;;;;;;;7.60;86.60;;;;;;5117245;28;19945;-88
2022/12/03 06:04:58;;;;;;;;;;;7.70;86.50;;;;;;5117539;28;19936;-88
2022/12/03 06:07:24;;;;;;;;;;;7.70;86.50;;;;;;5117484;28;20316;-88
2022/12/03 06:09:49;;;;;;;;;;;7.70;86.60;;;;;;5117545;28;19948;-88
2022/12/03 06:12:15;;;;;;;;;;;7.70;86.50;;;;;;5099219;28;19941;-88
2022/12/03 06:14:40;;;;;;;;;;;7.70;86.50;;;;;;5117463;28;20003;-88
2022/12/03 06:17:06;;;;;;;;;;;7.70;86.50;;;;;;5117251;28;20310;-88
2022/12/03 06:19:32;;;;;;;;;;;7.70;86.40;;;;;;5117080;28;19962;-88
2022/12/03 06:21:57;;;;;;;;;;;7.70;86.40;;;;;;5117252;28;19945;-88
2022/12/03 06:24:23;;;;;;;;;;;7.80;86.60;;;;;;5117092;28;20066;-88
2022/12/03 06:26:48;;;;;;;;;;;7.70;86.60;;;;;;5117420;28;19941;-88
2022/12/03 06:29:14;;;;;;;;;;;7.80;86.70;;;;;;5116999;28;19978;-88
2022/12/03 06:31:39;;;;;;;;;;;7.80;86.80;;;;;;5116982;28;20046;-88
2022/12/03 06:34:05;;;;;;;;;;;7.80;86.80;;;;;;5116466;28;20035;-88
2022/12/03 06:36:30;;;;;;;;;;;7.80;86.90;;;;;;5116763;28;20000;-88
2022/12/03 06:38:56;;;;;;;;;;;7.80;86.90;;;;;;5116953;28;20025;-87
2022/12/03 06:41:21;;;;;;;;;;;7.90;87.00;;;;;;5116866;28;19936;-87
2022/12/03 06:43:47;;;;;;;;;;;7.90;87.10;;;;;;5116678;28;20000;-87
2022/12/03 06:46:12;;;;;;;;;;;7.80;87.10;;;;;;5116735;28;20364;-87
2022/12/03 06:48:38;;;;;;;;;;;7.80;87.30;;;;;;5116756;28;20367;-87
2022/12/03 06:51:03;;;;;;;;;;;7.80;87.70;;;;;;5116739;28;19987;-87
2022/12/03 06:53:29;;;;;;;;;;;7.80;88.20;;;;;;5116441;28;19967;-87
2022/12/03 06:55:54;;;;;;;;;;;7.80;87.90;;;;;;5115069;28;20032;-87
2022/12/03 06:58:20;;;;;;;;;;;7.90;87.80;;;;;;5114286;28;19941;-87
2022/12/03 07:00:45;;;;;;;;;;;7.90;87.60;;;;;;5115562;28;19962;-87
2022/12/03 07:03:11;;;;;;;;;;;7.90;87.40;;;;;;5115890;28;19956;-87
2022/12/03 07:05:37;;;;;;;;;;;8.00;87.30;;;;;;5116273;28;19938;-87
2022/12/03 07:08:02;;;;;;;;;;;8.00;87.30;;;;;;5115123;28;19939;-87
2022/12/03 07:10:28;;;;;;;;;;;8.00;87.40;;;;;;5099578;28;19939;-88
2022/12/03 07:12:53;;;;;;;;;;;8.00;87.50;;;;;;5095821;28;20409;-87
2022/12/03 07:15:19;;;;;;;;;;;8.10;87.30;;;;;;5095739;28;19964;-88
2022/12/03 07:17:44;;;;;;;;;;;8.10;87.30;;;;;;5095769;28;20323;-88
2022/12/03 07:20:10;;;;;;;;;;;8.10;87.30;;;;;;5095710;28;19944;-88
2022/12/03 07:22:36;;;;;;;;;;;8.10;87.20;;;;;;5111837;28;19988;-88
2022/12/03 07:25:01;;;;;;;;;;;8.20;87.30;;;;;;5102717;22;20270;-88
2022/12/03 07:27:27;;;;;;;;;;;8.10;87.30;;;;;;5095494;28;20371;-88
2022/12/03 07:29:52;;;;;;;;;;;8.20;87.30;;;;;;5094301;28;19954;-88
2022/12/03 07:32:18;;;;;;;;;;;8.30;87.30;;;;;;5089521;28;19959;-88
2022/12/03 07:34:43;;;;;;;;;;;8.30;87.30;;;;;;5094104;28;19994;-88
2022/12/03 07:37:09;;;;;;;;;;;8.30;87.20;;;;;;5094931;28;20049;-88
2022/12/03 07:39:34;;;;;;;;;;;8.40;87.30;;;;;;5094210;28;20351;-88
2022/12/03 07:42:00;;;;;;;;;;;8.40;87.30;;;;;;5091951;28;19946;-88
2022/12/03 07:44:27;;;;;;;;;;;8.40;87.20;;;;;;5094969;28;19987;-88
2022/12/03 07:46:52;;;;;;;;;;;8.40;87.30;;;;;;5092230;28;19938;-88
2022/12/03 07:49:18;;;;;;;;;;;8.30;87.40;;;;;;5093947;28;19939;-89
2022/12/03 07:51:52;;;;;;;;;;;8.30;87.60;;;;;;5095166;28;20571;-89
2022/12/03 07:54:18;;;;;;;;;;;8.30;87.80;;;;;;5114283;28;19944;-88
2022/12/03 07:56:43;;;;;;;;;;;8.30;87.90;;;;;;5114698;28;19972;-88
2022/12/03 07:59:09;;;;;;;;;;;8.30;88.10;;;;;;5112599;28;20000;-88
2022/12/03 08:01:34;;;;;;;;;;;8.30;88.20;;;;;;5108298;28;20423;-89
2022/12/03 08:04:00;;;;;;;;;;;8.30;88.20;;;;;;5113415;28;20463;-88
2022/12/03 08:06:26;;;;;;;;;;;8.40;88.10;;;;;;5114841;28;20004;-89
2022/12/03 08:08:51;;;;;;;;;;;8.40;88.20;;;;;;5114577;28;19945;-89
2022/12/03 08:11:17;;;;;;;;;;;8.40;88.40;;;;;;5114687;28;19940;-89
2022/12/03 08:13:42;;;;;;;;;;;8.50;88.40;;;;;;5108581;28;20407;-89
2022/12/03 08:16:16;;;;;;;;;;;8.70;88.50;;;;;;5114433;28;20318;-89
2022/12/03 08:18:42;;;;;;;;;;;8.90;88.00;;;;;;5106995;28;19971;-89
2022/12/03 08:21:09;;;;;;;;;;;9.20;87.40;;;;;;5114930;28;20389;-89
2022/12/03 08:23:35;;;;;;;;;;;9.30;85.60;;;;;;5114404;28;20389;-88
2022/12/03 08:26:01;;;;;;;;;;;9.10;85.60;;;;;;5114422;28;19947;-88
2022/12/03 08:28:26;;;;;;;;;;;9.00;86.00;;;;;;5114534;28;20382;-88
2022/12/03 08:31:04;;;;;;;;;;;8.90;86.30;;;;;;5114602;28;20394;-88
2022/12/03 08:33:34;;;;;;;;;;;8.80;86.70;;;;;;5114528;28;19943;-88
2022/12/03 08:36:04;;;;;;;;;;;8.80;86.70;;;;;;5114159;28;19968;-88
2022/12/03 08:38:30;;;;;;;;;;;8.80;86.80;;;;;;5114431;28;19972;-88
2022/12/03 08:40:56;;;;;;;;;;;8.80;87.00;;;;;;5114140;28;20413;-88
2022/12/03 08:43:23;;;;;;;;;;;9.00;87.20;;;;;;5114372;28;19937;-89
2022/12/03 08:45:50;;;;;;;;;;;9.20;86.80;;;;;;5114100;28;19947;-88
2022/12/03 08:48:32;;;;;;;;;;;9.30;86.40;;;;;;5095589;28;19944;-89
2022/12/03 08:51:00;;;;;;;;;;;9.40;86.00;;;;;;5114101;28;19946;-89
2022/12/03 08:53:32;;;;;;;;;;;9.50;85.30;;;;;;5113348;28;19987;-89
2022/12/03 08:56:03;;;;;;;;;;;9.20;85.70;;;;;;5114079;28;19964;-88
2022/12/03 08:58:32;;;;;;;;;;;9.10;86.40;;;;;;5104564;28;19985;-89
2022/12/03 09:01:04;;;;;;;;;;;8.90;86.90;;;;;;5113102;28;20407;-89
2022/12/03 09:03:30;;;;;;;;;;;8.90;86.90;;;;;;5113664;28;19943;-89
2022/12/03 09:05:56;;;;;;;;;;;8.80;87.10;;;;;;5111420;28;20428;-89
2022/12/03 09:08:21;;;;;;;;;;;8.80;87.60;;;;;;5099932;28;19948;-89
2022/12/03 09:10:47;;;;;;;;;;;9.00;87.40;;;;;;5097158;28;19945;-89
2022/12/03 09:13:12;;;;;;;;;;;9.20;87.00;;;;;;5111998;28;20355;-90
2022/12/03 09:15:38;;;;;;;;;;;9.40;86.20;;;;;;5113561;28;20327;-89
2022/12/03 09:18:04;;;;;;;;;;;9.50;86.00;;;;;;5112014;28;19967;-89
2022/12/03 09:20:29;;;;;;;;;;;9.60;85.90;;;;;;5110476;28;20124;-89
2022/12/03 09:22:55;;;;;;;;;;;9.70;85.60;;;;;;5108247;28;19943;-89
2022/12/03 09:25:20;;;;;;;;;;;9.80;85.20;;;;;;5113359;28;20314;-89
2022/12/03 09:27:46;;;;;;;;;;;9.70;84.40;;;;;;5113417;28;19941;-88
2022/12/03 09:30:11;;;;;;;;;;;9.40;85.30;;;;;;5112971;28;19978;-89
2022/12/03 09:32:37;;;;;;;;;;;9.50;85.40;;;;;;5113139;28;20389;-89
2022/12/03 09:35:03;;;;;;;;;;;9.50;85.10;;;;;;5113718;28;19944;-89
2022/12/03 09:37:29;;;;;;;;;;;9.40;85.50;;;;;;5112639;28;19987;-89
2022/12/03 09:39:54;;;;;;;;;;;9.30;85.50;;;;;;5113155;28;19964;-89
2022/12/03 09:42:20;;;;;;;;;;;9.30;85.90;;;;;;5112398;28;19999;-89
2022/12/03 09:44:46;;;;;;;;;;;9.30;85.90;;;;;;5113091;28;20395;-89
2022/12/03 09:47:12;;;;;;;;;;;9.40;86.00;;;;;;5113267;28;19945;-89
2022/12/03 09:49:38;;;;;;;;;;;9.60;85.20;;;;;;5112687;28;19947;-89
2022/12/03 09:52:04;;;;;;;;;;;9.80;84.20;;;;;;5113232;28;19967;-89
2022/12/03 09:54:31;;;;;;;;;;;9.80;83.60;;;;;;5113278;28;19960;-89
2022/12/03 09:56:59;;;;;;;;;;;9.90;83.50;;;;;;5112796;28;20397;-88
2022/12/03 09:59:26;;;;;;;;;;;9.70;84.10;;;;;;5108174;28;19943;-88
2022/12/03 10:01:52;;;;;;;;;;;9.60;84.80;;;;;;5113015;28;19991;-89
2022/12/03 10:04:18;;;;;;;;;;;9.70;85.00;;;;;;5112967;28;19954;-88
2022/12/03 10:06:44;;;;;;;;;;;9.70;84.10;;;;;;5100019;28;19947;-89
2022/12/03 10:09:10;;;;;;;;;;;9.50;84.50;;;;;;5112359;28;19955;-89
2022/12/03 10:11:36;;;;;;;;;;;9.40;85.20;;;;;;5112719;28;19981;-89
2022/12/03 10:14:03;;;;;;;;;;;9.60;85.00;;;;;;5112876;28;19979;-89
2022/12/03 10:16:29;;;;;;;;;;;9.60;85.50;;;;;;5113039;28;20053;-89
2022/12/03 10:18:56;;;;;;;;;;;9.60;85.80;;;;;;5113046;28;19942;-89
2022/12/03 10:21:21;;;;;;;;;;;9.60;86.00;;;;;;5113253;28;20286;-89
2022/12/03 10:23:49;;;;;;;;;;;9.60;86.30;;;;;;5113082;28;19979;-89
2022/12/03 10:26:15;;;;;;;;;;;9.70;86.50;;;;;;5113484;28;19948;-89
2022/12/03 10:28:42;;;;;;;;;;;9.90;86.20;;;;;;5113162;28;19936;-89
2022/12/03 10:31:10;;;;;;;;;;;10.00;84.90;;;;;;5112877;28;19946;-89
2022/12/03 10:33:40;;;;;;;;;;;10.10;84.70;;;;;;5113106;28;20397;-88
2022/12/03 10:36:15;;;;;;;;;;;10.30;83.10;;;;;;5113035;28;20302;-88
2022/12/03 10:38:40;;;;;;;;;;;10.20;82.90;;;;;;5112838;28;19941;-88
2022/12/03 10:41:26;;;;;;;;;;;10.10;83.50;;;;;;5112843;28;19950;-89
2022/12/03 10:43:52;;;;;;;;;;;10.00;83.70;;;;;;5116013;28;20482;-89
2022/12/03 10:46:21;;;;;;;;;;;10.00;84.50;;;;;;5116843;28;20021;-89
2022/12/03 10:49:05;;;;;;;;;;;10.00;85.00;;;;;;5116763;28;20405;-89
2022/12/03 10:51:31;;;;;;;;;;;9.90;85.40;;;;;;5116669;28;19941;-89
2022/12/03 10:53:56;;;;;;;;;;;9.90;85.30;;;;;;5116519;28;20415;-89
2022/12/03 10:56:25;;;;;;;;;;;9.90;85.40;;;;;;5116610;28;20044;-89
2022/12/03 10:58:51;;;;;;;;;;;10.00;85.70;;;;;;5098495;28;19941;-89
2022/12/03 11:01:20;;;;;;;;;;;10.00;86.40;;;;;;5116559;28;19943;-89
2022/12/03 11:03:47;;;;;;;;;;;10.00;86.90;;;;;;5116527;28;19971;-89
2022/12/03 11:06:13;;;;;;;;;;;9.90;87.10;;;;;;5116440;28;19964;-89
2022/12/03 11:08:41;;;;;;;;;;;10.10;87.40;;;;;;5116417;28;20038;-88
2022/12/03 11:11:11;;;;;;;;;;;10.40;86.80;;;;;;5116335;28;20090;-88
2022/12/03 11:13:37;;;;;;;;;;;10.50;86.50;;;;;;5116373;28;19945;-88
2022/12/03 11:16:04;;;;;;;;;;;10.50;86.50;;;;;;5116264;28;19955;-89
2022/12/03 11:18:35;;;;;;;;;;;10.50;86.60;;;;;;5116294;28;19947;-89
2022/12/03 11:21:06;;;;;;;;;;;10.40;86.20;;;;;;5116436;28;19945;-88
2022/12/03 11:23:43;;;;;;;;;;;10.40;85.50;;;;;;5116129;28;19978;-89
2022/12/03 11:26:09;;;;;;;;;;;10.20;86.10;;;;;;5116161;28;19961;-89
2022/12/03 11:28:35;;;;;;;;;;;10.40;86.00;;;;;;5116046;28;19989;-88
2022/12/03 11:31:10;;;;;;;;;;;10.30;85.30;;;;;;5116201;28;19948;-89
2022/12/03 11:33:37;;;;;;;;;;;10.30;85.30;;;;;;5115963;28;19976;-89
2022/12/03 11:36:03;;;;;;;;;;;10.40;85.40;;;;;;5115865;28;19960;-88
2022/12/03 11:38:41;;;;;;;;;;;10.40;84.90;;;;;;5115894;28;20332;-88
2022/12/03 11:41:09;;;;;;;;;;;10.20;85.00;;;;;;5115846;28;20029;-88
2022/12/03 11:43:54;;;;;;;;;;;10.10;85.30;;;;;;5115990;28;19943;-88
2022/12/03 11:46:21;;;;;;;;;;;10.20;84.00;;;;;;5115937;28;19946;-88
2022/12/03 11:48:48;;;;;;;;;;;10.30;83.90;;;;;;5115625;28;19941;-88
2022/12/03 11:51:19;;;;;;;;;;;10.20;83.90;;;;;;5115652;28;19988;-88
2022/12/03 11:53:45;;;;;;;;;;;10.20;83.30;;;;;;5114730;28;19953;-88
2022/12/03 11:56:18;;;;;;;;;;;10.20;83.10;;;;;;5115419;28;19963;-88
2022/12/03 11:58:45;;;;;;;;;;;10.20;83.10;;;;;;5115419;28;19949;-88
2022/12/03 12:01:11;;;;;;;;;;;10.30;82.40;;;;;;5115403;28;20405;-88
2022/12/03 12:03:47;;;;;;;;;;;10.20;81.90;;;;;;5115614;28;19987;-87
2022/12/03 12:06:20;;;;;;;;;;;10.30;82.00;;;;;;5115266;28;20030;-88
2022/12/03 12:08:48;;;;;;;;;;;10.30;82.20;;;;;;5115257;28;19937;-88
2022/12/03 12:11:19;;;;;;;;;;;10.30;82.50;;;;;;5115209;28;19944;-88
2022/12/03 12:13:53;;;;;;;;;;;10.20;82.20;;;;;;5115193;28;20001;-87
2022/12/03 12:16:37;;;;;;;;;;;10.20;82.30;;;;;;5115015;28;19971;-88
2022/12/03 12:19:21;;;;;;;;;;;10.20;82.10;;;;;;5115062;28;19937;-88
2022/12/03 12:21:47;;;;;;;;;;;10.20;82.40;;;;;;5096691;28;19941;-88
2022/12/03 12:24:31;;;;;;;;;;;10.20;82.10;;;;;;5114791;28;19978;-88
2022/12/03 12:26:57;;;;;;;;;;;10.20;82.10;;;;;;5114874;28;19935;-88
2022/12/03 12:29:23;;;;;;;;;;;10.20;82.30;;;;;;5114875;28;20012;-88
2022/12/03 12:31:48;;;;;;;;;;;10.30;81.90;;;;;;5114823;28;19974;-88
2022/12/03 12:34:14;;;;;;;;;;;10.30;81.80;;;;;;5114771;28;19939;-88
2022/12/03 12:36:40;;;;;;;;;;;10.20;82.30;;;;;;5114591;28;19965;-88
2022/12/03 12:39:13;;;;;;;;;;;10.20;82.00;;;;;;5114611;28;19943;-88
2022/12/03 12:41:42;;;;;;;;;;;10.20;82.00;;;;;;5114563;28;19968;-88
2022/12/03 12:44:08;;;;;;;;;;;10.30;82.20;;;;;;5114556;28;19941;-88
2022/12/03 12:46:34;;;;;;;;;;;10.30;81.70;;;;;;5114454;28;20028;-88
2022/12/03 12:48:59;;;;;;;;;;;10.30;82.40;;;;;;5114479;28;19985;-88
2022/12/03 12:51:25;;;;;;;;;;;10.40;81.60;;;;;;5096214;28;20044;-88
2022/12/03 12:53:52;;;;;;;;;;;10.30;81.50;;;;;;5114188;28;20429;-88
2022/12/03 12:56:29;;;;;;;;;;;10.40;82.10;;;;;;5114168;28;20063;-88
2022/12/03 12:58:56;;;;;;;;;;;10.40;82.00;;;;;;5114241;28;19941;-88
2022/12/03 13:01:27;;;;;;;;;;;10.50;81.90;;;;;;5114499;28;19944;-88
2022/12/03 13:03:53;;;;;;;;;;;10.60;81.20;;;;;;5114193;28;20032;-89
2022/12/03 13:06:22;;;;;;;;;;;10.50;81.20;;;;;;5113265;28;19992;-88
2022/12/03 13:08:48;;;;;;;;;;;10.40;81.40;;;;;;5114168;28;19950;-88
2022/12/03 13:11:40;;;;;;;;;;;10.40;81.70;;;;;;5114050;28;19939;-88
2022/12/03 13:14:11;;;;;;;;;;;10.40;82.00;;;;;;5114037;28;20336;-88
2022/12/03 13:16:37;;;;;;;;;;;10.40;82.00;;;;;;5113983;28;19958;-88
2022/12/03 13:19:11;;;;;;;;;;;10.40;81.90;;;;;;5113967;28;19943;-88
2022/12/03 13:21:38;;;;;;;;;;;10.40;81.50;;;;;;5113931;28;19937;-88
2022/12/03 13:24:19;;;;;;;;;;;10.40;81.30;;;;;;5095379;28;19983;-88
2022/12/03 13:26:45;;;;;;;;;;;10.40;80.80;;;;;;5113829;28;19938;-88
2022/12/03 13:29:13;;;;;;;;;;;10.40;80.70;;;;;;5113779;28;20048;-88
2022/12/03 13:31:39;;;;;;;;;;;10.40;80.80;;;;;;5113729;28;19945;-88
2022/12/03 13:34:17;;;;;;;;;;;10.40;81.00;;;;;;5113725;28;19942;-88
2022/12/03 13:36:43;;;;;;;;;;;10.30;81.50;;;;;;5113613;28;20061;-88
2022/12/03 13:39:14;;;;;;;;;;;10.30;81.90;;;;;;5113684;28;19937;-89
2022/12/03 13:44:28;;;;;;;;;;;10.30;81.80;;;;;;5081686;28;19967;-88
2022/12/03 13:46:53;;;;;;;;;;;10.30;82.40;;;;;;5113590;28;19940;-89
2022/12/03 13:49:20;;;;;;;;;;;10.30;82.60;;;;;;5113582;28;19959;-89
2022/12/03 13:51:46;;;;;;;;;;;10.30;82.50;;;;;;5113457;28;19949;-88
2022/12/03 13:54:14;;;;;;;;;;;10.30;82.30;;;;;;5113408;28;20023;-89
2022/12/03 13:56:40;;;;;;;;;;;10.30;82.60;;;;;;5113407;28;19983;-88
2022/12/03 13:59:06;;;;;;;;;;;10.30;82.80;;;;;;5113453;28;19940;-88
2022/12/03 14:01:31;;;;;;;;;;;10.30;82.70;;;;;;5113429;28;19937;-88
2022/12/03 14:03:57;;;;;;;;;;;10.30;82.00;;;;;;5113462;28;19942;-88
2022/12/03 14:06:22;;;;;;;;;;;10.20;82.00;;;;;;5113395;28;19992;-89
2022/12/03 14:08:48;;;;;;;;;;;10.20;82.40;;;;;;5113390;28;19949;-89
2022/12/03 14:13:58;;;;;;;;;;;10.10;83.30;;;;;;5113373;28;19983;-88
2022/12/03 14:16:23;;;;;;;;;;;10.10;83.60;;;;;;5113333;28;19958;-89
2022/12/03 14:18:49;;;;;;;;;;;10.10;84.20;;;;;;5117405;28;20339;-89
2022/12/03 14:21:14;;;;;;;;;;;10.10;84.50;;;;;;5117332;28;19936;-89
2022/12/03 14:23:40;;;;;;;;;;;10.10;84.70;;;;;;5117180;28;19973;-89
2022/12/03 14:26:05;;;;;;;;;;;10.10;84.80;;;;;;5117312;28;19984;-89
2022/12/03 14:28:47;;;;;;;;;;;10.00;84.90;;;;;;5082407;28;20312;-89
2022/12/03 14:31:12;;;;;;;;;;;10.10;84.90;;;;;;5117225;28;19946;-89
2022/12/03 14:33:38;;;;;;;;;;;10.10;84.90;;;;;;5117160;28;20435;-88
2022/12/03 14:36:04;;;;;;;;;;;10.00;85.00;;;;;;5117052;28;20028;-89
2022/12/03 14:38:29;;;;;;;;;;;9.90;84.70;;;;;;5117028;28;19941;-89
2022/12/03 14:40:55;;;;;;;;;;;9.90;84.00;;;;;;5117028;28;20396;-88
2022/12/03 14:43:20;;;;;;;;;;;10.00;84.10;;;;;;5116968;28;20310;-89
2022/12/03 14:45:46;;;;;;;;;;;10.00;83.80;;;;;;5116924;28;20281;-88
2022/12/03 14:48:11;;;;;;;;;;;10.00;83.60;;;;;;5116858;28;20465;-88